sensor_id;sensor_type;location;lat;lon;timestamp;P1;durP1;ratioP1;P2;durP2;ratioP2
7575;SDS011;3829;50.798;4.358;2022-10-15T00:01:50;30.13;;;22.07;;
7575;SDS011;3829;50.798;4.358;2022-10-15T00:04:16;30.53;;;20.77;;
7575;SDS011;3829;50.798;4.358;2022-10-15T00:06:41;26.80;;;19.57;;
7575;SDS011;3829;50.798;4.358;2022-10-15T00:09:07;27.63;;;20.10;;
7575;SDS011;3829;50.798;4.358;2022-10-15T00:11:32;23.37;;;19.40;;
7575;SDS011;3829;50.798;4.358;2022-10-15T00:13:58;26.10;;;18.73;;
7575;SDS011;3829;50.798;4.358;2022-10-15T00:16:25;25.03;;;19.20;;
7575;SDS011;3829;50.798;4.358;2022-10-15T00:18:54;23.87;;;18.60;;
7575;SDS011;3829;50.798;4.358;2022-10-15T00:21:20;24.03;;;18.43;;
7575;SDS011;3829;50.798;4.358;2022-10-15T00:23:46;23.60;;;18.07;;
7575;SDS011;3829;50.798;4.358;2022-10-15T00:26:15;25.50;;;19.97;;
7575;SDS011;3829;50.798;4.358;2022-10-15T00:28:44;23.10;;;17.67;;
7575;SDS011;3829;50.798;4.358;2022-10-15T00:31:11;23.27;;;18.40;;
7575;SDS011;3829;50.798;4.358;2022-10-15T00:33:39;28.63;;;19.10;;
7575;SDS011;3829;50.798;4.358;2022-10-15T00:36:07;20.70;;;17.20;;
7575;SDS011;3829;50.798;4.358;2022-10-15T00:38:43;24.70;;;17.83;;
7575;SDS011;3829;50.798;4.358;2022-10-15T00:41:13;25.33;;;17.20;;
7575;SDS011;3829;50.798;4.358;2022-10-15T00:43:43;25.87;;;18.43;;
7575;SDS011;3829;50.798;4.358;2022-10-15T00:46:17;22.77;;;16.80;;
7575;SDS011;3829;50.798;4.358;2022-10-15T00:48:49;22.77;;;18.37;;
7575;SDS011;3829;50.798;4.358;2022-10-15T00:51:18;18.40;;;16.07;;
7575;SDS011;3829;50.798;4.358;2022-10-15T00:53:46;22.83;;;17.13;;
7575;SDS011;3829;50.798;4.358;2022-10-15T00:56:14;21.40;;;18.17;;
7575;SDS011;3829;50.798;4.358;2022-10-15T00:58:44;23.83;;;18.40;;
7575;SDS011;3829;50.798;4.358;2022-10-15T01:01:10;24.83;;;17.47;;
7575;SDS011;3829;50.798;4.358;2022-10-15T01:03:36;25.93;;;17.97;;
7575;SDS011;3829;50.798;4.358;2022-10-15T01:06:02;26.43;;;19.73;;
7575;SDS011;3829;50.798;4.358;2022-10-15T01:08:28;24.53;;;16.80;;
7575;SDS011;3829;50.798;4.358;2022-10-15T01:10:58;23.17;;;18.00;;
7575;SDS011;3829;50.798;4.358;2022-10-15T01:18:49;22.60;;;19.03;;
7575;SDS011;3829;50.798;4.358;2022-10-15T01:30:01;28.07;;;19.37;;
7575;SDS011;3829;50.798;4.358;2022-10-15T01:32:55;24.53;;;18.60;;
7575;SDS011;3829;50.798;4.358;2022-10-15T01:35:36;26.30;;;18.90;;
7575;SDS011;3829;50.798;4.358;2022-10-15T01:43:43;26.97;;;19.83;;
7575;SDS011;3829;50.798;4.358;2022-10-15T01:46:13;28.03;;;20.77;;
7575;SDS011;3829;50.798;4.358;2022-10-15T01:49:01;27.77;;;20.10;;
7575;SDS011;3829;50.798;4.358;2022-10-15T01:51:29;31.83;;;20.50;;
7575;SDS011;3829;50.798;4.358;2022-10-15T01:53:57;29.37;;;21.17;;
7575;SDS011;3829;50.798;4.358;2022-10-15T01:56:24;33.73;;;22.47;;
7575;SDS011;3829;50.798;4.358;2022-10-15T01:58:51;32.23;;;22.40;;
7575;SDS011;3829;50.798;4.358;2022-10-15T02:01:19;31.70;;;21.63;;
7575;SDS011;3829;50.798;4.358;2022-10-15T02:03:49;33.43;;;22.70;;
7575;SDS011;3829;50.798;4.358;2022-10-15T02:09:06;31.70;;;21.43;;
7575;SDS011;3829;50.798;4.358;2022-10-15T02:11:49;33.87;;;22.50;;
7575;SDS011;3829;50.798;4.358;2022-10-15T02:14:35;33.03;;;22.23;;
7575;SDS011;3829;50.798;4.358;2022-10-15T02:17:09;34.47;;;24.00;;
7575;SDS011;3829;50.798;4.358;2022-10-15T02:19:51;30.30;;;22.00;;
7575;SDS011;3829;50.798;4.358;2022-10-15T02:22:23;33.93;;;22.23;;
7575;SDS011;3829;50.798;4.358;2022-10-15T02:24:55;31.03;;;21.63;;
7575;SDS011;3829;50.798;4.358;2022-10-15T02:27:23;29.87;;;21.50;;
7575;SDS011;3829;50.798;4.358;2022-10-15T02:29:50;29.70;;;21.20;;
7575;SDS011;3829;50.798;4.358;2022-10-15T02:32:18;31.30;;;20.57;;
7575;SDS011;3829;50.798;4.358;2022-10-15T02:34:45;31.30;;;21.30;;
7575;SDS011;3829;50.798;4.358;2022-10-15T02:37:12;33.60;;;23.17;;
7575;SDS011;3829;50.798;4.358;2022-10-15T02:39:39;29.83;;;21.03;;
7575;SDS011;3829;50.798;4.358;2022-10-15T02:42:04;28.90;;;19.93;;
7575;SDS011;3829;50.798;4.358;2022-10-15T02:44:30;33.13;;;21.10;;
7575;SDS011;3829;50.798;4.358;2022-10-15T02:46:56;28.83;;;20.07;;
7575;SDS011;3829;50.798;4.358;2022-10-15T02:49:23;33.37;;;20.97;;
7575;SDS011;3829;50.798;4.358;2022-10-15T02:51:49;31.13;;;20.37;;
7575;SDS011;3829;50.798;4.358;2022-10-15T02:54:14;28.87;;;19.73;;
7575;SDS011;3829;50.798;4.358;2022-10-15T02:56:40;28.57;;;20.23;;
7575;SDS011;3829;50.798;4.358;2022-10-15T02:59:06;28.93;;;21.60;;
7575;SDS011;3829;50.798;4.358;2022-10-15T03:01:31;27.40;;;20.53;;
7575;SDS011;3829;50.798;4.358;2022-10-15T03:03:58;27.90;;;19.97;;
7575;SDS011;3829;50.798;4.358;2022-10-15T03:06:24;33.93;;;21.37;;
7575;SDS011;3829;50.798;4.358;2022-10-15T03:08:49;31.77;;;21.37;;
7575;SDS011;3829;50.798;4.358;2022-10-15T03:11:15;29.13;;;21.73;;
7575;SDS011;3829;50.798;4.358;2022-10-15T03:13:41;28.73;;;20.53;;
7575;SDS011;3829;50.798;4.358;2022-10-15T03:16:07;31.23;;;21.23;;
7575;SDS011;3829;50.798;4.358;2022-10-15T03:18:34;28.53;;;20.80;;
7575;SDS011;3829;50.798;4.358;2022-10-15T03:21:00;26.77;;;20.10;;
7575;SDS011;3829;50.798;4.358;2022-10-15T03:23:26;29.77;;;20.43;;
7575;SDS011;3829;50.798;4.358;2022-10-15T03:25:52;31.50;;;21.17;;
7575;SDS011;3829;50.798;4.358;2022-10-15T03:28:18;28.30;;;20.80;;
7575;SDS011;3829;50.798;4.358;2022-10-15T03:30:45;28.67;;;21.23;;
7575;SDS011;3829;50.798;4.358;2022-10-15T03:33:10;29.80;;;20.03;;
7575;SDS011;3829;50.798;4.358;2022-10-15T03:35:36;32.70;;;20.70;;
7575;SDS011;3829;50.798;4.358;2022-10-15T03:38:02;25.67;;;19.30;;
7575;SDS011;3829;50.798;4.358;2022-10-15T03:40:28;27.60;;;20.80;;
7575;SDS011;3829;50.798;4.358;2022-10-15T03:42:53;36.90;;;21.17;;
7575;SDS011;3829;50.798;4.358;2022-10-15T03:45:20;28.87;;;20.20;;
7575;SDS011;3829;50.798;4.358;2022-10-15T03:47:46;26.23;;;19.57;;
7575;SDS011;3829;50.798;4.358;2022-10-15T03:50:12;27.17;;;20.40;;
7575;SDS011;3829;50.798;4.358;2022-10-15T03:52:38;27.70;;;20.40;;
7575;SDS011;3829;50.798;4.358;2022-10-15T03:55:04;27.50;;;18.17;;
7575;SDS011;3829;50.798;4.358;2022-10-15T03:57:30;24.67;;;18.13;;
7575;SDS011;3829;50.798;4.358;2022-10-15T03:59:55;28.47;;;18.10;;
7575;SDS011;3829;50.798;4.358;2022-10-15T04:02:21;24.37;;;17.87;;
7575;SDS011;3829;50.798;4.358;2022-10-15T04:04:50;26.20;;;17.73;;
7575;SDS011;3829;50.798;4.358;2022-10-15T04:07:17;24.23;;;16.47;;
7575;SDS011;3829;50.798;4.358;2022-10-15T04:09:43;23.87;;;17.10;;
7575;SDS011;3829;50.798;4.358;2022-10-15T04:12:08;28.20;;;17.63;;
7575;SDS011;3829;50.798;4.358;2022-10-15T04:14:35;24.43;;;17.10;;
7575;SDS011;3829;50.798;4.358;2022-10-15T04:17:00;23.43;;;16.77;;
7575;SDS011;3829;50.798;4.358;2022-10-15T04:19:26;27.10;;;17.23;;
7575;SDS011;3829;50.798;4.358;2022-10-15T04:21:52;23.33;;;15.50;;
7575;SDS011;3829;50.798;4.358;2022-10-15T04:24:17;24.20;;;15.83;;
7575;SDS011;3829;50.798;4.358;2022-10-15T04:26:43;24.07;;;15.27;;
7575;SDS011;3829;50.798;4.358;2022-10-15T04:29:09;24.80;;;15.13;;
7575;SDS011;3829;50.798;4.358;2022-10-15T04:31:34;24.63;;;14.80;;
7575;SDS011;3829;50.798;4.358;2022-10-15T04:34:01;23.73;;;13.70;;
7575;SDS011;3829;50.798;4.358;2022-10-15T04:36:27;22.17;;;14.77;;
7575;SDS011;3829;50.798;4.358;2022-10-15T04:38:52;24.00;;;14.77;;
7575;SDS011;3829;50.798;4.358;2022-10-15T04:41:18;22.73;;;13.40;;
7575;SDS011;3829;50.798;4.358;2022-10-15T04:43:44;22.30;;;14.67;;
7575;SDS011;3829;50.798;4.358;2022-10-15T04:46:10;23.13;;;13.83;;
7575;SDS011;3829;50.798;4.358;2022-10-15T04:48:36;26.60;;;13.60;;
7575;SDS011;3829;50.798;4.358;2022-10-15T04:51:06;22.57;;;13.53;;
7575;SDS011;3829;50.798;4.358;2022-10-15T04:53:32;23.43;;;13.87;;
7575;SDS011;3829;50.798;4.358;2022-10-15T04:56:05;24.47;;;13.97;;
7575;SDS011;3829;50.798;4.358;2022-10-15T04:58:33;23.77;;;12.90;;
7575;SDS011;3829;50.798;4.358;2022-10-15T05:01:03;19.17;;;11.67;;
7575;SDS011;3829;50.798;4.358;2022-10-15T05:03:31;19.97;;;12.60;;
7575;SDS011;3829;50.798;4.358;2022-10-15T05:06:05;21.90;;;12.87;;
7575;SDS011;3829;50.798;4.358;2022-10-15T05:08:33;22.03;;;12.20;;
7575;SDS011;3829;50.798;4.358;2022-10-15T05:11:02;19.23;;;11.83;;
7575;SDS011;3829;50.798;4.358;2022-10-15T05:13:29;21.10;;;11.90;;
7575;SDS011;3829;50.798;4.358;2022-10-15T05:15:55;19.10;;;10.53;;
7575;SDS011;3829;50.798;4.358;2022-10-15T05:18:21;21.13;;;12.10;;
7575;SDS011;3829;50.798;4.358;2022-10-15T05:20:47;22.53;;;12.00;;
7575;SDS011;3829;50.798;4.358;2022-10-15T05:23:13;21.47;;;11.33;;
7575;SDS011;3829;50.798;4.358;2022-10-15T05:25:39;22.20;;;11.17;;
7575;SDS011;3829;50.798;4.358;2022-10-15T05:28:04;17.27;;;9.83;;
7575;SDS011;3829;50.798;4.358;2022-10-15T05:30:30;17.63;;;10.63;;
7575;SDS011;3829;50.798;4.358;2022-10-15T05:32:57;17.40;;;10.47;;
7575;SDS011;3829;50.798;4.358;2022-10-15T05:35:23;17.13;;;10.77;;
7575;SDS011;3829;50.798;4.358;2022-10-15T05:37:48;19.93;;;10.30;;
7575;SDS011;3829;50.798;4.358;2022-10-15T05:40:14;19.10;;;10.50;;
7575;SDS011;3829;50.798;4.358;2022-10-15T05:42:40;16.83;;;9.93;;
7575;SDS011;3829;50.798;4.358;2022-10-15T05:45:05;16.93;;;9.67;;
7575;SDS011;3829;50.798;4.358;2022-10-15T05:47:32;20.10;;;10.43;;
7575;SDS011;3829;50.798;4.358;2022-10-15T05:49:57;15.97;;;9.67;;
7575;SDS011;3829;50.798;4.358;2022-10-15T05:52:23;19.97;;;10.43;;
7575;SDS011;3829;50.798;4.358;2022-10-15T05:54:48;15.87;;;9.47;;
7575;SDS011;3829;50.798;4.358;2022-10-15T05:57:14;13.80;;;8.83;;
7575;SDS011;3829;50.798;4.358;2022-10-15T05:59:39;18.80;;;9.03;;
7575;SDS011;3829;50.798;4.358;2022-10-15T06:02:05;14.47;;;8.87;;
7575;SDS011;3829;50.798;4.358;2022-10-15T06:04:30;14.80;;;9.10;;
7575;SDS011;3829;50.798;4.358;2022-10-15T06:06:56;15.83;;;9.23;;
7575;SDS011;3829;50.798;4.358;2022-10-15T06:09:22;13.90;;;8.60;;
7575;SDS011;3829;50.798;4.358;2022-10-15T06:11:48;15.07;;;8.53;;
7575;SDS011;3829;50.798;4.358;2022-10-15T06:14:13;12.57;;;7.73;;
7575;SDS011;3829;50.798;4.358;2022-10-15T06:16:39;12.93;;;7.90;;
7575;SDS011;3829;50.798;4.358;2022-10-15T06:19:05;13.13;;;8.27;;
7575;SDS011;3829;50.798;4.358;2022-10-15T06:21:30;18.43;;;9.03;;
7575;SDS011;3829;50.798;4.358;2022-10-15T06:23:56;13.17;;;7.53;;
7575;SDS011;3829;50.798;4.358;2022-10-15T06:26:21;10.53;;;7.40;;
7575;SDS011;3829;50.798;4.358;2022-10-15T06:28:47;13.67;;;7.97;;
7575;SDS011;3829;50.798;4.358;2022-10-15T06:31:13;12.80;;;7.87;;
7575;SDS011;3829;50.798;4.358;2022-10-15T06:33:38;15.33;;;7.27;;
7575;SDS011;3829;50.798;4.358;2022-10-15T06:36:05;11.80;;;7.43;;
7575;SDS011;3829;50.798;4.358;2022-10-15T06:38:32;12.73;;;8.10;;
7575;SDS011;3829;50.798;4.358;2022-10-15T06:40:59;11.37;;;7.80;;
7575;SDS011;3829;50.798;4.358;2022-10-15T06:43:27;13.50;;;7.47;;
7575;SDS011;3829;50.798;4.358;2022-10-15T06:45:53;11.67;;;6.90;;
7575;SDS011;3829;50.798;4.358;2022-10-15T06:48:18;12.23;;;7.93;;
7575;SDS011;3829;50.798;4.358;2022-10-15T06:50:44;11.27;;;7.27;;
7575;SDS011;3829;50.798;4.358;2022-10-15T06:53:09;12.13;;;7.20;;
7575;SDS011;3829;50.798;4.358;2022-10-15T06:55:35;11.43;;;7.17;;
7575;SDS011;3829;50.798;4.358;2022-10-15T06:58:03;13.90;;;7.50;;
7575;SDS011;3829;50.798;4.358;2022-10-15T07:00:29;12.60;;;7.80;;
7575;SDS011;3829;50.798;4.358;2022-10-15T07:02:55;12.13;;;8.20;;
7575;SDS011;3829;50.798;4.358;2022-10-15T07:05:20;11.20;;;6.40;;
7575;SDS011;3829;50.798;4.358;2022-10-15T07:07:52;11.83;;;6.33;;
7575;SDS011;3829;50.798;4.358;2022-10-15T07:10:19;9.40;;;6.50;;
7575;SDS011;3829;50.798;4.358;2022-10-15T07:12:45;9.03;;;6.43;;
7575;SDS011;3829;50.798;4.358;2022-10-15T07:15:11;10.03;;;5.50;;
7575;SDS011;3829;50.798;4.358;2022-10-15T07:17:37;8.43;;;6.13;;
7575;SDS011;3829;50.798;4.358;2022-10-15T07:20:03;8.93;;;6.13;;
7575;SDS011;3829;50.798;4.358;2022-10-15T07:22:30;9.57;;;6.13;;
7575;SDS011;3829;50.798;4.358;2022-10-15T07:24:55;9.17;;;6.17;;
7575;SDS011;3829;50.798;4.358;2022-10-15T07:27:21;10.03;;;6.47;;
7575;SDS011;3829;50.798;4.358;2022-10-15T07:29:46;8.10;;;5.40;;
7575;SDS011;3829;50.798;4.358;2022-10-15T07:32:12;8.53;;;6.07;;
7575;SDS011;3829;50.798;4.358;2022-10-15T07:34:38;10.17;;;6.70;;
7575;SDS011;3829;50.798;4.358;2022-10-15T07:37:04;9.83;;;6.27;;
7575;SDS011;3829;50.798;4.358;2022-10-15T07:39:29;7.83;;;5.77;;
7575;SDS011;3829;50.798;4.358;2022-10-15T07:41:55;10.03;;;6.90;;
7575;SDS011;3829;50.798;4.358;2022-10-15T07:44:20;8.47;;;5.90;;
7575;SDS011;3829;50.798;4.358;2022-10-15T07:46:46;9.43;;;5.63;;
7575;SDS011;3829;50.798;4.358;2022-10-15T07:49:12;11.20;;;5.60;;
7575;SDS011;3829;50.798;4.358;2022-10-15T07:51:40;9.73;;;5.63;;
7575;SDS011;3829;50.798;4.358;2022-10-15T07:54:06;9.63;;;5.93;;
7575;SDS011;3829;50.798;4.358;2022-10-15T07:56:31;9.77;;;5.77;;
7575;SDS011;3829;50.798;4.358;2022-10-15T07:58:57;7.10;;;5.47;;
7575;SDS011;3829;50.798;4.358;2022-10-15T08:01:22;9.57;;;5.27;;
7575;SDS011;3829;50.798;4.358;2022-10-15T08:03:48;9.40;;;5.73;;
7575;SDS011;3829;50.798;4.358;2022-10-15T08:06:14;8.20;;;4.73;;
7575;SDS011;3829;50.798;4.358;2022-10-15T08:08:40;6.83;;;5.27;;
7575;SDS011;3829;50.798;4.358;2022-10-15T08:11:06;6.97;;;4.60;;
7575;SDS011;3829;50.798;4.358;2022-10-15T08:13:37;5.73;;;4.03;;
7575;SDS011;3829;50.798;4.358;2022-10-15T08:16:09;6.20;;;3.60;;
7575;SDS011;3829;50.798;4.358;2022-10-15T08:18:37;7.97;;;4.10;;
7575;SDS011;3829;50.798;4.358;2022-10-15T08:21:04;6.03;;;3.83;;
7575;SDS011;3829;50.798;4.358;2022-10-15T08:23:30;5.23;;;3.33;;
7575;SDS011;3829;50.798;4.358;2022-10-15T08:25:57;4.97;;;3.17;;
7575;SDS011;3829;50.798;4.358;2022-10-15T08:28:24;5.07;;;3.10;;
7575;SDS011;3829;50.798;4.358;2022-10-15T08:30:50;3.77;;;2.73;;
7575;SDS011;3829;50.798;4.358;2022-10-15T08:33:16;3.83;;;2.60;;
7575;SDS011;3829;50.798;4.358;2022-10-15T08:35:42;2.63;;;2.40;;
7575;SDS011;3829;50.798;4.358;2022-10-15T08:38:08;3.43;;;2.37;;
7575;SDS011;3829;50.798;4.358;2022-10-15T08:40:35;3.20;;;2.00;;
7575;SDS011;3829;50.798;4.358;2022-10-15T08:43:01;3.63;;;2.10;;
7575;SDS011;3829;50.798;4.358;2022-10-15T08:45:28;1.83;;;1.50;;
7575;SDS011;3829;50.798;4.358;2022-10-15T08:48:03;2.60;;;1.50;;
7575;SDS011;3829;50.798;4.358;2022-10-15T08:53:04;2.17;;;1.80;;
7575;SDS011;3829;50.798;4.358;2022-10-15T08:55:34;1.83;;;1.57;;
7575;SDS011;3829;50.798;4.358;2022-10-15T08:58:15;2.10;;;1.33;;
7575;SDS011;3829;50.798;4.358;2022-10-15T09:06:09;1.90;;;1.20;;
7575;SDS011;3829;50.798;4.358;2022-10-15T09:11:34;1.17;;;1.07;;
7575;SDS011;3829;50.798;4.358;2022-10-15T09:14:21;0.90;;;0.90;;
7575;SDS011;3829;50.798;4.358;2022-10-15T09:17:14;1.93;;;1.00;;
7575;SDS011;3829;50.798;4.358;2022-10-15T09:19:45;1.70;;;1.07;;
7575;SDS011;3829;50.798;4.358;2022-10-15T09:22:17;1.10;;;0.90;;
7575;SDS011;3829;50.798;4.358;2022-10-15T09:24:46;2.17;;;1.10;;
7575;SDS011;3829;50.798;4.358;2022-10-15T09:27:15;2.20;;;1.00;;
7575;SDS011;3829;50.798;4.358;2022-10-15T09:32:47;2.67;;;1.30;;
7575;SDS011;3829;50.798;4.358;2022-10-15T09:35:23;1.30;;;1.20;;
7575;SDS011;3829;50.798;4.358;2022-10-15T09:43:10;1.20;;;1.00;;
7575;SDS011;3829;50.798;4.358;2022-10-15T09:45:38;1.90;;;1.30;;
7575;SDS011;3829;50.798;4.358;2022-10-15T09:48:09;1.23;;;1.13;;
7575;SDS011;3829;50.798;4.358;2022-10-15T09:50:43;1.40;;;0.90;;
7575;SDS011;3829;50.798;4.358;2022-10-15T09:53:38;1.27;;;1.17;;
7575;SDS011;3829;50.798;4.358;2022-10-15T09:56:17;1.20;;;1.10;;
7575;SDS011;3829;50.798;4.358;2022-10-15T10:01:23;1.90;;;1.20;;
7575;SDS011;3829;50.798;4.358;2022-10-15T10:03:54;1.67;;;1.30;;
7575;SDS011;3829;50.798;4.358;2022-10-15T10:06:47;1.40;;;1.30;;
7575;SDS011;3829;50.798;4.358;2022-10-15T10:10:20;1.30;;;1.20;;
7575;SDS011;3829;50.798;4.358;2022-10-15T10:12:17;1.97;;;1.30;;
7575;SDS011;3829;50.798;4.358;2022-10-15T10:14:57;2.43;;;1.10;;
7575;SDS011;3829;50.798;4.358;2022-10-15T10:17:29;1.20;;;1.10;;
7575;SDS011;3829;50.798;4.358;2022-10-15T10:22:44;1.23;;;1.13;;
7575;SDS011;3829;50.798;4.358;2022-10-15T10:25:39;1.40;;;1.30;;
7575;SDS011;3829;50.798;4.358;2022-10-15T10:30:42;1.73;;;1.20;;
7575;SDS011;3829;50.798;4.358;2022-10-15T10:33:12;1.67;;;1.00;;
7575;SDS011;3829;50.798;4.358;2022-10-15T10:35:44;1.40;;;1.23;;
7575;SDS011;3829;50.798;4.358;2022-10-15T10:38:53;1.40;;;1.30;;
7575;SDS011;3829;50.798;4.358;2022-10-15T10:41:06;1.27;;;1.00;;
7575;SDS011;3829;50.798;4.358;2022-10-15T10:43:34;1.27;;;1.10;;
7575;SDS011;3829;50.798;4.358;2022-10-15T10:48:40;4.00;;;1.20;;
7575;SDS011;3829;50.798;4.358;2022-10-15T10:51:32;2.27;;;1.40;;
7575;SDS011;3829;50.798;4.358;2022-10-15T10:53:57;1.10;;;1.07;;
7575;SDS011;3829;50.798;4.358;2022-10-15T10:56:32;1.37;;;1.00;;
7575;SDS011;3829;50.798;4.358;2022-10-15T10:59:13;1.67;;;1.43;;
7575;SDS011;3829;50.798;4.358;2022-10-15T11:01:43;4.07;;;1.70;;
7575;SDS011;3829;50.798;4.358;2022-10-15T11:04:13;1.30;;;1.20;;
7575;SDS011;3829;50.798;4.358;2022-10-15T11:10:04;1.63;;;1.43;;
7575;SDS011;3829;50.798;4.358;2022-10-15T11:15:29;2.10;;;1.63;;
7575;SDS011;3829;50.798;4.358;2022-10-15T11:38:22;1.77;;;1.67;;
7575;SDS011;3829;50.798;4.358;2022-10-15T11:54:19;0.97;;;0.90;;
7575;SDS011;3829;50.798;4.358;2022-10-15T11:56:46;0.90;;;0.90;;
7575;SDS011;3829;50.798;4.358;2022-10-15T12:02:12;1.53;;;1.40;;
7575;SDS011;3829;50.798;4.358;2022-10-15T12:04:46;1.20;;;1.10;;
7575;SDS011;3829;50.798;4.358;2022-10-15T12:07:21;1.23;;;1.20;;
7575;SDS011;3829;50.798;4.358;2022-10-15T12:09:52;1.80;;;1.40;;
7575;SDS011;3829;50.798;4.358;2022-10-15T12:12:25;1.40;;;1.30;;
7575;SDS011;3829;50.798;4.358;2022-10-15T12:19:53;4.20;;;1.80;;
7575;SDS011;3829;50.798;4.358;2022-10-15T12:22:34;2.30;;;1.60;;
7575;SDS011;3829;50.798;4.358;2022-10-15T12:28:00;2.90;;;1.93;;
7575;SDS011;3829;50.798;4.358;2022-10-15T12:30:29;3.37;;;1.30;;
7575;SDS011;3829;50.798;4.358;2022-10-15T12:32:58;1.60;;;0.77;;
7575;SDS011;3829;50.798;4.358;2022-10-15T12:35:35;1.60;;;0.73;;
7575;SDS011;3829;50.798;4.358;2022-10-15T12:38:24;2.20;;;1.17;;
7575;SDS011;3829;50.798;4.358;2022-10-15T12:41:08;0.70;;;0.70;;
7575;SDS011;3829;50.798;4.358;2022-10-15T12:43:43;1.60;;;0.70;;
7575;SDS011;3829;50.798;4.358;2022-10-15T12:46:15;2.60;;;0.97;;
7575;SDS011;3829;50.798;4.358;2022-10-15T12:48:41;0.97;;;0.87;;
7575;SDS011;3829;50.798;4.358;2022-10-15T12:53:41;4.17;;;1.00;;
7575;SDS011;3829;50.798;4.358;2022-10-15T12:56:12;6.37;;;0.90;;
7575;SDS011;3829;50.798;4.358;2022-10-15T12:59:01;0.90;;;0.70;;
7575;SDS011;3829;50.798;4.358;2022-10-15T13:01:48;1.47;;;0.70;;
7575;SDS011;3829;50.798;4.358;2022-10-15T13:04:16;0.77;;;0.77;;
7575;SDS011;3829;50.798;4.358;2022-10-15T13:06:43;1.23;;;0.87;;
7575;SDS011;3829;50.798;4.358;2022-10-15T13:16:39;2.73;;;1.00;;
7575;SDS011;3829;50.798;4.358;2022-10-15T13:19:18;1.20;;;1.10;;
7575;SDS011;3829;50.798;4.358;2022-10-15T13:21:47;2.93;;;1.10;;
7575;SDS011;3829;50.798;4.358;2022-10-15T13:24:18;8.80;;;1.70;;
7575;SDS011;3829;50.798;4.358;2022-10-15T13:26:49;2.20;;;1.00;;
7575;SDS011;3829;50.798;4.358;2022-10-15T13:29:17;2.40;;;1.00;;
7575;SDS011;3829;50.798;4.358;2022-10-15T13:31:48;1.83;;;1.00;;
7575;SDS011;3829;50.798;4.358;2022-10-15T13:36:53;3.93;;;1.07;;
7575;SDS011;3829;50.798;4.358;2022-10-15T13:39:26;4.27;;;1.17;;
7575;SDS011;3829;50.798;4.358;2022-10-15T13:42:08;4.70;;;1.33;;
7575;SDS011;3829;50.798;4.358;2022-10-15T13:44:55;1.13;;;0.80;;
7575;SDS011;3829;50.798;4.358;2022-10-15T13:53:21;2.60;;;1.27;;
7575;SDS011;3829;50.798;4.358;2022-10-15T13:55:48;4.90;;;1.33;;
7575;SDS011;3829;50.798;4.358;2022-10-15T13:58:34;4.17;;;1.20;;
7575;SDS011;3829;50.798;4.358;2022-10-15T14:03:32;3.73;;;1.10;;
7575;SDS011;3829;50.798;4.358;2022-10-15T14:08:53;2.67;;;0.93;;
7575;SDS011;3829;50.798;4.358;2022-10-15T14:11:21;4.77;;;1.17;;
7575;SDS011;3829;50.798;4.358;2022-10-15T14:18:54;4.43;;;1.03;;
7575;SDS011;3829;50.798;4.358;2022-10-15T14:21:23;3.53;;;1.13;;
7575;SDS011;3829;50.798;4.358;2022-10-15T14:24:00;4.07;;;1.20;;
7575;SDS011;3829;50.798;4.358;2022-10-15T14:26:38;4.60;;;1.10;;
7575;SDS011;3829;50.798;4.358;2022-10-15T14:29:05;4.53;;;1.10;;
7575;SDS011;3829;50.798;4.358;2022-10-15T14:31:39;6.37;;;1.20;;
7575;SDS011;3829;50.798;4.358;2022-10-15T14:34:26;4.37;;;1.00;;
7575;SDS011;3829;50.798;4.358;2022-10-15T14:37:00;2.53;;;1.10;;
7575;SDS011;3829;50.798;4.358;2022-10-15T14:39:34;5.40;;;1.00;;
7575;SDS011;3829;50.798;4.358;2022-10-15T14:42:03;4.10;;;1.40;;
7575;SDS011;3829;50.798;4.358;2022-10-15T14:47:36;4.60;;;1.43;;
7575;SDS011;3829;50.798;4.358;2022-10-15T14:50:01;9.03;;;1.27;;
7575;SDS011;3829;50.798;4.358;2022-10-15T14:52:29;5.70;;;1.40;;
7575;SDS011;3829;50.798;4.358;2022-10-15T14:55:05;3.10;;;1.03;;
7575;SDS011;3829;50.798;4.358;2022-10-15T14:57:38;2.87;;;1.13;;
7575;SDS011;3829;50.798;4.358;2022-10-15T15:00:12;3.07;;;1.17;;
7575;SDS011;3829;50.798;4.358;2022-10-15T15:02:38;4.03;;;1.23;;
7575;SDS011;3829;50.798;4.358;2022-10-15T15:07:32;3.77;;;1.20;;
7575;SDS011;3829;50.798;4.358;2022-10-15T15:09:57;6.40;;;1.27;;
7575;SDS011;3829;50.798;4.358;2022-10-15T15:12:23;7.63;;;1.20;;
7575;SDS011;3829;50.798;4.358;2022-10-15T15:14:51;3.13;;;1.10;;
7575;SDS011;3829;50.798;4.358;2022-10-15T15:17:18;3.00;;;1.00;;
7575;SDS011;3829;50.798;4.358;2022-10-15T15:19:46;5.33;;;1.17;;
7575;SDS011;3829;50.798;4.358;2022-10-15T15:22:14;4.33;;;1.50;;
7575;SDS011;3829;50.798;4.358;2022-10-15T15:24:42;3.20;;;1.50;;
7575;SDS011;3829;50.798;4.358;2022-10-15T15:27:17;3.80;;;1.77;;
7575;SDS011;3829;50.798;4.358;2022-10-15T15:29:50;4.67;;;1.37;;
7575;SDS011;3829;50.798;4.358;2022-10-15T15:32:16;4.03;;;1.20;;
7575;SDS011;3829;50.798;4.358;2022-10-15T15:34:42;2.83;;;1.03;;
7575;SDS011;3829;50.798;4.358;2022-10-15T15:37:27;4.03;;;1.50;;
7575;SDS011;3829;50.798;4.358;2022-10-15T15:39:54;4.73;;;1.67;;
7575;SDS011;3829;50.798;4.358;2022-10-15T15:42:20;5.13;;;1.47;;
7575;SDS011;3829;50.798;4.358;2022-10-15T15:44:48;3.73;;;1.40;;
7575;SDS011;3829;50.798;4.358;2022-10-15T15:47:14;7.03;;;1.33;;
7575;SDS011;3829;50.798;4.358;2022-10-15T15:49:40;6.57;;;1.50;;
7575;SDS011;3829;50.798;4.358;2022-10-15T15:52:07;4.53;;;1.40;;
7575;SDS011;3829;50.798;4.358;2022-10-15T15:54:37;1.30;;;1.00;;
7575;SDS011;3829;50.798;4.358;2022-10-15T15:57:04;3.30;;;1.27;;
7575;SDS011;3829;50.798;4.358;2022-10-15T15:59:30;3.50;;;1.40;;
7575;SDS011;3829;50.798;4.358;2022-10-15T16:01:55;5.30;;;1.70;;
7575;SDS011;3829;50.798;4.358;2022-10-15T16:04:21;3.20;;;1.30;;
7575;SDS011;3829;50.798;4.358;2022-10-15T16:06:46;8.00;;;2.77;;
7575;SDS011;3829;50.798;4.358;2022-10-15T16:09:15;7.67;;;1.77;;
7575;SDS011;3829;50.798;4.358;2022-10-15T16:11:42;9.30;;;1.77;;
7575;SDS011;3829;50.798;4.358;2022-10-15T16:14:08;2.80;;;1.20;;
7575;SDS011;3829;50.798;4.358;2022-10-15T16:16:34;5.03;;;1.80;;
7575;SDS011;3829;50.798;4.358;2022-10-15T16:19:00;5.00;;;1.50;;
7575;SDS011;3829;50.798;4.358;2022-10-15T16:21:26;3.93;;;1.40;;
7575;SDS011;3829;50.798;4.358;2022-10-15T16:23:52;5.93;;;1.30;;
7575;SDS011;3829;50.798;4.358;2022-10-15T16:26:18;11.87;;;1.63;;
7575;SDS011;3829;50.798;4.358;2022-10-15T16:28:44;3.37;;;1.70;;
7575;SDS011;3829;50.798;4.358;2022-10-15T16:31:19;4.90;;;1.53;;
7575;SDS011;3829;50.798;4.358;2022-10-15T16:33:49;5.07;;;1.30;;
7575;SDS011;3829;50.798;4.358;2022-10-15T16:36:15;3.57;;;1.70;;
7575;SDS011;3829;50.798;4.358;2022-10-15T16:38:42;4.77;;;1.90;;
7575;SDS011;3829;50.798;4.358;2022-10-15T16:41:09;4.40;;;1.33;;
7575;SDS011;3829;50.798;4.358;2022-10-15T16:43:35;7.87;;;2.30;;
7575;SDS011;3829;50.798;4.358;2022-10-15T16:46:02;5.03;;;1.90;;
7575;SDS011;3829;50.798;4.358;2022-10-15T16:48:28;6.40;;;1.67;;
7575;SDS011;3829;50.798;4.358;2022-10-15T16:50:59;4.07;;;1.90;;
7575;SDS011;3829;50.798;4.358;2022-10-15T16:53:33;3.93;;;2.07;;
7575;SDS011;3829;50.798;4.358;2022-10-15T16:56:07;6.00;;;1.67;;
7575;SDS011;3829;50.798;4.358;2022-10-15T16:58:40;4.00;;;1.83;;
7575;SDS011;3829;50.798;4.358;2022-10-15T17:01:07;9.17;;;2.23;;
7575;SDS011;3829;50.798;4.358;2022-10-15T17:03:36;4.33;;;1.73;;
7575;SDS011;3829;50.798;4.358;2022-10-15T17:06:04;2.97;;;1.73;;
7575;SDS011;3829;50.798;4.358;2022-10-15T17:08:34;6.27;;;1.83;;
7575;SDS011;3829;50.798;4.358;2022-10-15T17:11:02;3.20;;;2.30;;
7575;SDS011;3829;50.798;4.358;2022-10-15T17:13:28;6.03;;;1.70;;
7575;SDS011;3829;50.798;4.358;2022-10-15T17:15:53;5.47;;;2.13;;
7575;SDS011;3829;50.798;4.358;2022-10-15T17:18:19;2.73;;;1.80;;
7575;SDS011;3829;50.798;4.358;2022-10-15T17:20:45;6.17;;;2.00;;
7575;SDS011;3829;50.798;4.358;2022-10-15T17:23:12;3.20;;;2.00;;
7575;SDS011;3829;50.798;4.358;2022-10-15T17:25:38;4.03;;;1.60;;
7575;SDS011;3829;50.798;4.358;2022-10-15T17:28:04;7.17;;;2.00;;
7575;SDS011;3829;50.798;4.358;2022-10-15T17:30:33;3.67;;;1.87;;
7575;SDS011;3829;50.798;4.358;2022-10-15T17:33:04;8.00;;;2.27;;
7575;SDS011;3829;50.798;4.358;2022-10-15T17:35:30;8.03;;;2.47;;